Dalton, MA

5:58 AM EDT on March 30, 2015 (GMT -0400)
Area of Berkshire Mall, Swamp Rd | | Change Station
CLOSE
Current Station
Personal Weather Station
Location: Lanesborough, MA
Elevation: 997 ft
Nearby Weather Stations

Elev 997 ft 42.50 °N, 73.20 °W | Updated 3 minutes ago

Snow
Snow
32.4 °F
Feels Like 29 °F
N
3.7
Wind Variable Wind from South

Today
High -- | Low -- °F
--% Chance of Precip.
Yesterday
High -- | Low -- °F
Precip. -- in
6:38 AM 7:16 PM
Waxing Gibbous, 78% visible
Pressure 29.85 in
Visibility 7.0 miles
Clouds Overcast 3700 ft
Windchill 29 °F
Dew Point 18 °F
Humidity 54%
Rainfall 0.00 in
Snow Depth Not available.
UV 0 out of 12
Pollen 3.50 out of 12
Air Quality Not available.
Flu Activity Not available.
METAR KPSF 300954Z AUTO 18009G23KT 7SM -SN OVC037 M01/M08 A2983 RMK AO2 SNB50 SLP108 P0000 T10061078

More Conditions Fewer Conditions

Pressure 29.85 in
Visibility 7.0 miles
Clouds Overcast 3700 ft
Windchill 29 °F
Dew Point 18 °F
Humidity 54%
Rainfall 0.00 in
Snow Depth Not available.
UV 0 out of 12
Pollen 3.50 out of 12
Air Quality Not available.
Flu Activity Not available.
METAR KPSF 300954Z AUTO 18009G23KT 7SM -SN OVC037 M01/M08 A2983 RMK AO2 SNB50 SLP108 P0000 T10061078

More Conditions Fewer Conditions

10-Day Weather Forecast

Almanac

Astronomy

Mar. 30, 2015 Rise Set
Actual Time
Civil Twilight
Nautical Twilight
Astronomical Twilight
Moon
Length of Visible Light
Length of Day
Tomorrow will be .
, % of the Moon is Illuminated

Today's Extremes

State Highs State Lows

Community

WunderPhotos

Upload Photos

1,809,451 photos uploaded!

WunderBlogs® & News

Nearby

Air Quality

  Air Quality AQ Index Pollutant
Not available.

Snow Depth

Station Depth Elevation

Earthquake Activity

City Distance Mag. Time & Date
Minimum magnitude displayed is 2.5.

Coastal Water Temperatures

Place Temperature

Stations

Nearby Weather Stations

Station Location Temp. Windchill Dew Point Humidity Wind Precip. Elev Updated Type